»·PEaware :: N5141 KCMA-KVCV

N5141 :: KCMA-KVCV

FLIGHT INFORMATION

Flight Status: Arrived
Operator: Privately registered:
United States
More flights under this callsign
Pilot: Edward S. (31002)
Aircraft: CESSNA 172 SKYHAWK
(C172)
More flights by this aircraft type
Origin: KCMA Camarillo
United States
Destination: KVCV Socal Logistics
United States
More flights between these airports :: More routes between these airports
Route: +
File this flight plan on PilotEdge
Remarks:
Altitude:
(Current/Filed)
7,500ft
Speed:
(Current/Filed)
0kts
Departed: 06-Oct-20 08:29 AM
Arrived: 06-Oct-20 09:31 AM
Distance/Time
Traveled:
88nm/1:02
Distance/Time
To Go:
Arrived

Flight Plot

Page will automatically refresh every two minutes.

Flight plan parsing failed; only flown route is shown


Map Options




Map Legend


Flown Route
Filed Route
Departure Airport
Arrival Airport
Navaid (VOR, NDB)
Fix

Horizontal Profiles

Position Reports

Time Latitude Longitude Heading Altitude Ground
Speed
06-Oct-20 08:22 34.210350 -119.076468 90 79ft 0kts
06-Oct-20 08:23 34.210350 -119.076468 90 79ft 0kts
06-Oct-20 08:24 34.211023 -119.075705 229 80ft 9kts
06-Oct-20 08:25 34.210919 -119.080857 270 76ft 16kts
06-Oct-20 08:26 34.210837 -119.085154 68 73ft 9kts
06-Oct-20 08:27 34.212714 -119.084587 359 76ft 0kts
06-Oct-20 08:28 34.213523 -119.084741 305 76ft 6kts
06-Oct-20 08:29 34.215257 -119.103091 270 715ft 79kts
06-Oct-20 08:30 34.218640 -119.127705 230 1794ft 84kts
06-Oct-20 08:31 34.202129 -119.126460 102 2783ft 83kts
06-Oct-20 08:32 34.189843 -119.107450 178 3771ft 83kts
06-Oct-20 08:33 34.168120 -119.107481 218 4686ft 83kts
06-Oct-20 08:34 34.150437 -119.106064 108 5472ft 85kts
06-Oct-20 08:35 34.157382 -119.082016 68 6264ft 84kts
06-Oct-20 08:36 34.162320 -119.059362 72 6893ft 78kts
06-Oct-20 08:37 34.162916 -119.032957 95 7410ft 92kts
06-Oct-20 08:38 34.172375 -118.999803 66 7651ft 113kts
06-Oct-20 08:39 34.181657 -118.960804 100 7569ft 93kts
06-Oct-20 08:39 34.178099 -118.936447 77 7594ft 87kts
06-Oct-20 08:40 34.187171 -118.909407 66 7596ft 86kts
06-Oct-20 08:42 34.198191 -118.878348 66 7596ft 85kts
06-Oct-20 08:42 34.206030 -118.856381 66 7596ft 85kts
06-Oct-20 08:43 34.215515 -118.829944 66 7596ft 85kts
06-Oct-20 08:44 34.222365 -118.810945 66 7596ft 85kts
06-Oct-20 08:45 34.231361 -118.786122 65 7604ft 99kts
06-Oct-20 08:46 34.244733 -118.749347 66 7596ft 125kts
06-Oct-20 08:47 34.253966 -118.724030 65 7596ft 124kts
06-Oct-20 08:48 34.267944 -118.685885 65 7596ft 124kts
06-Oct-20 08:49 34.279423 -118.646807 85 7595ft 123kts
06-Oct-20 08:50 34.278244 -118.605290 92 7596ft 124kts
06-Oct-20 08:51 34.286058 -118.564958 72 7596ft 123kts
06-Oct-20 08:52 34.299325 -118.526629 65 7596ft 124kts
06-Oct-20 08:53 34.313169 -118.488467 65 7596ft 124kts
06-Oct-20 08:54 34.327060 -118.450393 65 7596ft 124kts
06-Oct-20 08:55 34.341076 -118.412193 65 7596ft 124kts
06-Oct-20 08:56 34.355100 -118.374190 65 7596ft 124kts
06-Oct-20 08:57 34.369245 -118.336080 65 7596ft 124kts
06-Oct-20 08:58 34.383402 -118.298150 65 7596ft 124kts
06-Oct-20 08:59 34.397689 -118.260087 65 7596ft 124kts
06-Oct-20 09:00 34.411996 -118.222186 65 7596ft 124kts
06-Oct-20 09:01 34.429269 -118.186243 54 7596ft 124kts
06-Oct-20 09:02 34.449411 -118.152477 54 7596ft 124kts
06-Oct-20 09:03 34.469331 -118.118413 65 7594ft 124kts
06-Oct-20 09:04 34.500459 -118.107940 1 7596ft 123kts
06-Oct-20 09:05 34.534762 -118.106482 4 7595ft 124kts
06-Oct-20 09:06 34.568790 -118.100175 2 7595ft 124kts
06-Oct-20 09:07 34.603160 -118.098910 1 7596ft 124kts
06-Oct-20 09:08 34.637424 -118.096356 22 7594ft 124kts
06-Oct-20 09:09 34.666580 -118.074225 33 7596ft 124kts
06-Oct-20 09:10 34.696044 -118.052574 24 7593ft 124kts
06-Oct-20 09:11 34.702296 -118.013708 90 7596ft 123kts
06-Oct-20 09:12 34.700198 -117.971926 96 7596ft 124kts
06-Oct-20 09:13 34.695309 -117.930379 99 7596ft 124kts
06-Oct-20 09:14 34.689251 -117.889218 100 7596ft 124kts
06-Oct-20 09:15 34.682641 -117.848072 101 7596ft 124kts
06-Oct-20 09:16 34.675787 -117.807000 101 7596ft 124kts
06-Oct-20 09:17 34.668814 -117.765955 101 7596ft 124kts
06-Oct-20 09:18 34.661793 -117.724997 101 7596ft 124kts
06-Oct-20 09:19 34.654717 -117.683942 101 7596ft 124kts
06-Oct-20 09:20 34.647629 -117.642969 101 7596ft 124kts
06-Oct-20 09:21 34.640512 -117.601942 101 7596ft 124kts
06-Oct-20 09:22 34.633373 -117.560902 101 7596ft 124kts
06-Oct-20 09:23 34.626099 -117.519334 102 7377ft 125kts
06-Oct-20 09:24 34.618950 -117.481109 103 6867ft 111kts
06-Oct-20 09:25 34.611577 -117.444353 103 6260ft 115kts
06-Oct-20 09:26 34.597417 -117.410164 92 5554ft 117kts
06-Oct-20 09:27 34.596135 -117.370870 93 4855ft 116kts
06-Oct-20 09:28 34.611079 -117.344600 337 4220ft 102kts
06-Oct-20 09:29 34.601919 -117.364838 222 3418ft 65kts
06-Oct-20 09:30 34.592090 -117.376691 223 2864ft 25kts
06-Oct-20 09:31 34.589555 -117.377451 125 2869ft 0kts

Navigation Log

Ident Type
Flight plan parsing failed, navigation log unavailable